Time;durP1;ratioP1;P1;durP2;ratioP2;P2;SDS_P1;SDS_P2;PMS_P1;PMS_P2;Temp;Humidity;BMP_temperature;BMP_pressure;BME280_temperature;BME280_humidity;BME280_pressure;Samples;Min_cycle;Max_cycle;Signal;HPM_P1;HPM_P2
2021/11/27 00:01:28;;;;;;;4.43;2.60;;;;;;;0.79;100.00;93195.44;5011152;28;24451;-74
2021/11/27 00:03:56;;;;;;;3.13;2.10;;;;;;;0.79;99.80;93192.91;5010963;28;24977;-74
2021/11/27 00:06:23;;;;;;;3.10;1.98;;;;;;;0.71;100.00;93192.59;5010987;28;24431;-74
2021/11/27 00:08:49;;;;;;;3.78;2.17;;;;;;;0.66;100.00;93197.97;5011182;28;24980;-74
2021/11/27 00:11:16;;;;;;;4.55;2.28;;;;;;;0.53;100.00;93203.97;5011216;28;24942;-74
2021/11/27 00:13:43;;;;;;;5.38;2.88;;;;;;;0.41;100.00;93200.50;5011218;28;24416;-74
2021/11/27 00:16:09;;;;;;;3.67;2.85;;;;;;;0.34;100.00;93196.72;5010611;28;24448;-73
2021/11/27 00:18:36;;;;;;;4.15;2.22;;;;;;;0.42;100.00;93191.94;5010961;28;24947;-74
2021/11/27 00:21:08;;;;;;;3.45;2.15;;;;;;;0.32;100.00;93180.72;5010986;28;25002;-74
2021/11/27 00:23:36;;;;;;;4.85;2.60;;;;;;;0.28;100.00;93182.63;5011186;28;24822;-74
2021/11/27 00:26:04;;;;;;;3.85;2.38;;;;;;;0.07;100.00;93184.81;5010523;28;24417;-74
2021/11/27 00:28:31;;;;;;;3.72;2.60;;;;;;;0.15;100.00;93191.97;5010657;28;24435;-74
2021/11/27 00:31:00;;;;;;;3.47;2.72;;;;;;;0.05;100.00;93191.75;5011063;28;24416;-74
2021/11/27 00:33:27;;;;;;;3.20;2.42;;;;;;;0.06;100.00;93179.84;5010826;28;24969;-73
2021/11/27 00:35:53;;;;;;;3.67;2.60;;;;;;;0.02;100.00;93183.50;5010588;28;24432;-74
2021/11/27 00:38:22;;;;;;;3.63;2.10;;;;;;;-0.07;100.00;93177.25;5010885;28;24429;-74
2021/11/27 00:40:48;;;;;;;4.63;2.40;;;;;;;-0.14;100.00;93170.94;5010550;28;24994;-73
2021/11/27 00:43:15;;;;;;;3.10;2.30;;;;;;;-0.12;100.00;93164.81;5010593;28;24420;-73
2021/11/27 00:45:44;;;;;;;2.85;2.40;;;;;;;-0.19;100.00;93171.19;5010697;28;24420;-74
2021/11/27 00:48:12;;;;;;;9.60;2.58;;;;;;;-0.12;100.00;93171.63;5010852;28;24423;-74
2021/11/27 00:50:43;;;;;;;3.28;2.08;;;;;;;-0.14;100.00;93163.31;5010685;28;24423;-73
2021/11/27 00:53:09;;;;;;;4.60;2.97;;;;;;;-0.13;100.00;93157.28;5010643;28;24432;-73
2021/11/27 00:55:38;;;;;;;3.33;2.20;;;;;;;-0.23;100.00;93153.69;5010165;28;24776;-74
2021/11/27 00:58:06;;;;;;;4.82;2.60;;;;;;;-0.19;100.00;93143.22;5010854;28;24427;-74
2021/11/27 01:00:37;;;;;;;3.85;2.53;;;;;;;-0.28;100.00;93147.16;5010695;28;24448;-74
2021/11/27 01:03:07;;;;;;;2.88;2.03;;;;;;;-0.30;100.00;93127.81;5010738;28;24425;-74
2021/11/27 01:05:35;;;;;;;3.78;2.58;;;;;;;-0.27;100.00;93138.63;5010225;28;24433;-74
2021/11/27 01:08:01;;;;;;;4.80;3.22;;;;;;;-0.36;100.00;93138.38;5010327;28;24480;-74
2021/11/27 01:10:32;;;;;;;4.43;2.85;;;;;;;-0.44;100.00;93136.34;5010823;28;24424;-74
2021/11/27 01:13:00;;;;;;;4.20;2.53;;;;;;;-0.41;100.00;93131.03;5010703;28;24424;-74
2021/11/27 01:15:28;;;;;;;3.80;2.67;;;;;;;-0.49;100.00;93136.59;5010071;28;24431;-74
2021/11/27 01:17:56;;;;;;;4.75;3.60;;;;;;;-0.53;100.00;93126.72;5013815;28;24427;-74
2021/11/27 01:20:27;;;;;;;2.92;2.08;;;;;;;-0.46;100.00;93117.00;5008465;28;24456;-74
2021/11/27 01:22:55;;;;;;;2.85;2.35;;;;;;;-0.40;100.00;93119.16;5013260;28;24437;-74
2021/11/27 01:25:21;;;;;;;4.40;2.72;;;;;;;-0.41;100.00;93109.88;5013832;28;24830;-73
2021/11/27 01:27:49;;;;;;;2.90;2.20;;;;;;;-0.36;100.00;93113.78;5014019;28;24978;-73
2021/11/27 01:30:17;;;;;;;2.88;2.00;;;;;;;-0.37;100.00;93107.06;5014192;28;24487;-73
2021/11/27 01:32:45;;;;;;;4.60;2.33;;;;;;;-0.40;100.00;93103.91;5014061;28;24440;-74
2021/11/27 01:35:11;;;;;;;2.72;1.60;;;;;;;-0.39;100.00;93108.06;5013682;28;24423;-74
2021/11/27 01:37:38;;;;;;;3.13;1.77;;;;;;;-0.42;100.00;93108.25;5013916;28;25214;-74
2021/11/27 01:40:08;;;;;;;2.40;1.73;;;;;;;-0.34;100.00;93116.22;5014070;28;24850;-74
2021/11/27 01:42:34;;;;;;;4.68;2.00;;;;;;;-0.36;100.00;93110.41;5013706;28;24455;-74
2021/11/27 01:45:01;;;;;;;1.90;1.70;;;;;;;-0.35;100.00;93107.75;5013789;28;24523;-74
2021/11/27 01:47:29;;;;;;;2.17;1.45;;;;;;;-0.35;100.00;93110.31;5013797;28;24990;-73
2021/11/27 01:49:56;;;;;;;2.20;1.60;;;;;;;-0.30;100.00;93110.84;5013766;28;24420;-74
2021/11/27 01:52:22;;;;;;;3.08;1.70;;;;;;;-0.34;100.00;93106.03;5014081;28;24420;-74
2021/11/27 01:54:49;;;;;;;3.80;1.80;;;;;;;-0.40;100.00;93096.28;5013782;28;24447;-74
2021/11/27 01:57:16;;;;;;;2.13;1.33;;;;;;;-0.37;100.00;93091.81;5013530;28;24436;-74
2021/11/27 01:59:45;;;;;;;6.27;1.60;;;;;;;-0.32;100.00;93097.41;5013662;28;24432;-73
2021/11/27 02:02:14;;;;;;;1.70;1.20;;;;;;;-0.35;100.00;93087.41;5013531;28;24535;-74
2021/11/27 02:04:42;;;;;;;2.47;1.67;;;;;;;-0.30;100.00;93090.50;5013875;28;24494;-74
2021/11/27 02:07:09;;;;;;;3.40;1.73;;;;;;;-0.32;100.00;93083.88;5013300;28;24435;-74
2021/11/27 02:09:38;;;;;;;2.42;1.65;;;;;;;-0.31;100.00;93088.84;5013653;28;24424;-74
2021/11/27 02:12:08;;;;;;;2.33;1.30;;;;;;;-0.32;100.00;93087.22;5013525;28;24428;-74
2021/11/27 02:14:35;;;;;;;2.30;1.40;;;;;;;-0.30;100.00;93082.88;5013446;28;24518;-74
2021/11/27 02:17:02;;;;;;;1.50;1.25;;;;;;;-0.27;100.00;93081.84;5012847;28;24432;-74
2021/11/27 02:19:28;;;;;;;3.80;1.47;;;;;;;-0.20;100.00;93088.19;5013406;28;24425;-74
2021/11/27 02:21:56;;;;;;;1.77;1.30;;;;;;;-0.15;100.00;93077.69;5013224;28;24448;-74
2021/11/27 02:24:23;;;;;;;2.70;1.30;;;;;;;-0.04;100.00;93071.03;5013264;28;24436;-74
2021/11/27 02:26:51;;;;;;;1.85;1.10;;;;;;;-0.13;100.00;93075.88;5012560;28;25005;-74
2021/11/27 02:29:20;;;;;;;1.52;1.25;;;;;;;-0.08;100.00;93076.38;5012886;28;24428;-74
2021/11/27 02:31:47;;;;;;;1.63;1.40;;;;;;;-0.03;100.00;93061.66;5013216;28;24408;-74
2021/11/27 02:34:14;;;;;;;1.38;1.17;;;;;;;0.06;100.00;93061.03;5013173;28;24482;-74
2021/11/27 02:36:43;;;;;;;2.85;1.58;;;;;;;0.11;100.00;93064.13;5012761;28;24425;-74
2021/11/27 02:39:12;;;;;;;1.73;1.48;;;;;;;0.19;100.00;93071.25;5013008;28;24460;-74
2021/11/27 02:41:40;;;;;;;1.65;1.55;;;;;;;0.21;100.00;93069.41;5012612;28;24444;-74
2021/11/27 02:44:08;;;;;;;2.30;1.80;;;;;;;0.17;100.00;93073.06;5012877;28;24448;-74
2021/11/27 02:46:35;;;;;;;4.80;2.03;;;;;;;0.10;100.00;93059.94;5012703;28;24471;-74
2021/11/27 02:49:02;;;;;;;2.80;2.28;;;;;;;0.16;100.00;93051.09;5012781;28;24424;-74
2021/11/27 02:51:28;;;;;;;3.08;2.50;;;;;;;0.05;100.00;93051.78;5012811;28;24420;-74
2021/11/27 02:53:55;;;;;;;7.07;2.50;;;;;;;0.03;100.00;93042.63;5012505;28;24966;-74
2021/11/27 02:56:23;;;;;;;2.85;2.25;;;;;;;0.07;100.00;93052.50;5012640;28;24432;-74
2021/11/27 02:58:49;;;;;;;3.63;2.58;;;;;;;0.03;100.00;93052.78;5012499;28;24419;-74
2021/11/27 03:01:16;;;;;;;3.57;2.67;;;;;;;0.01;100.00;93041.91;5012553;28;24543;-74
2021/11/27 03:03:42;;;;;;;3.55;2.45;;;;;;;0.01;100.00;93041.91;5012514;28;24428;-74
2021/11/27 03:06:09;;;;;;;3.47;2.42;;;;;;;-0.01;100.00;93047.91;5012009;28;24444;-74
2021/11/27 03:08:37;;;;;;;2.80;2.40;;;;;;;-0.05;100.00;93050.75;5012336;28;24420;-74
2021/11/27 03:11:06;;;;;;;3.77;2.50;;;;;;;-0.02;100.00;93048.81;5012064;28;24517;-74
2021/11/27 03:13:36;;;;;;;3.03;2.07;;;;;;;-0.05;100.00;93040.56;5012611;28;24474;-74
2021/11/27 03:16:04;;;;;;;2.95;2.40;;;;;;;-0.04;100.00;93043.03;5012016;28;24821;-73
2021/11/27 03:18:30;;;;;;;2.72;2.10;;;;;;;0.06;100.00;93040.69;5012178;28;24432;-74
2021/11/27 03:20:57;;;;;;;2.53;2.00;;;;;;;0.01;100.00;93031.75;5012062;28;24479;-73
2021/11/27 03:23:25;;;;;;;2.10;1.90;;;;;;;0.04;100.00;93027.28;5012081;28;24419;-74
2021/11/27 03:25:52;;;;;;;2.70;2.00;;;;;;;0.00;100.00;93033.47;5012003;28;24524;-74
2021/11/27 03:28:18;;;;;;;2.08;1.70;;;;;;;-0.02;100.00;93032.75;5012028;28;24830;-74
2021/11/27 03:30:46;;;;;;;4.00;2.35;;;;;;;-0.03;100.00;93031.94;5011815;28;24897;-73
2021/11/27 03:33:13;;;;;;;2.20;2.00;;;;;;;0.04;100.00;93027.28;5011960;28;24427;-74
2021/11/27 03:35:40;;;;;;;3.95;2.20;;;;;;;-0.01;100.00;93030.09;5011532;28;24830;-73
2021/11/27 03:38:07;;;;;;;2.65;2.40;;;;;;;0.02;100.00;93033.38;5012342;28;24429;-74
2021/11/27 03:40:33;;;;;;;2.95;2.63;;;;;;;0.12;100.00;93027.56;5011495;28;24799;-73
2021/11/27 03:43:00;;;;;;;4.30;3.90;;;;;;;0.07;100.00;93036.41;5011496;28;25012;-73
2021/11/27 03:45:27;;;;;;;6.47;4.53;;;;;;;0.13;100.00;93031.75;5011960;28;24954;-74
2021/11/27 03:47:59;;;;;;;3.15;2.85;;;;;;;0.11;100.00;93037.84;5010877;28;24440;-74
2021/11/27 03:50:29;;;;;;;3.60;2.97;;;;;;;0.10;100.00;93037.03;5011335;28;24806;-73
2021/11/27 03:52:56;;;;;;;3.40;3.10;;;;;;;0.12;100.00;93047.94;5011811;28;24416;-73
2021/11/27 03:55:23;;;;;;;4.18;3.30;;;;;;;0.12;100.00;93047.94;5011395;28;24424;-74
2021/11/27 03:57:49;;;;;;;3.83;3.45;;;;;;;0.13;100.00;93048.75;5011508;28;24950;-74
2021/11/27 04:00:16;;;;;;;4.38;3.55;;;;;;;0.07;100.00;93052.50;5011213;28;24433;-74
2021/11/27 04:02:43;;;;;;;4.38;3.35;;;;;;;0.08;100.00;93041.41;5011338;28;24838;-73
2021/11/27 04:05:11;;;;;;;5.03;4.00;;;;;;;0.02;100.00;93041.81;5010846;28;24419;-73
2021/11/27 04:07:38;;;;;;;5.30;3.63;;;;;;;0.00;100.00;93043.66;5011343;28;24413;-74
2021/11/27 04:10:05;;;;;;;5.28;3.80;;;;;;;0.00;100.00;93041.13;5011321;28;24834;-73
2021/11/27 04:12:31;;;;;;;3.90;3.50;;;;;;;0.01;100.00;93036.84;5011304;28;24423;-73
2021/11/27 04:14:58;;;;;;;3.40;3.10;;;;;;;0.04;100.00;93034.91;5010912;28;24424;-74
2021/11/27 04:17:24;;;;;;;5.47;3.55;;;;;;;-0.02;100.00;93031.03;5010970;28;24783;-74
2021/11/27 04:19:51;;;;;;;4.97;3.40;;;;;;;-0.01;100.00;93032.63;5010583;28;24459;-74
2021/11/27 04:22:19;;;;;;;3.50;2.90;;;;;;;-0.04;100.00;93045.59;5011299;28;24456;-74
2021/11/27 04:24:45;;;;;;;4.70;2.88;;;;;;;-0.07;100.00;93043.25;5010964;28;24954;-73
2021/11/27 04:27:12;;;;;;;2.97;2.67;;;;;;;0.05;100.00;93049.25;5011300;28;24847;-74
2021/11/27 04:29:38;;;;;;;3.40;2.75;;;;;;;0.04;100.00;93051.88;5010870;28;24774;-73
2021/11/27 04:32:05;;;;;;;2.70;2.50;;;;;;;0.02;100.00;93048.63;5010900;28;24420;-73
2021/11/27 04:34:32;;;;;;;2.88;2.55;;;;;;;-0.06;100.00;93044.84;5010750;28;24424;-74
2021/11/27 04:36:58;;;;;;;2.90;2.40;;;;;;;-0.04;100.00;93050.66;5010889;28;24428;-74
2021/11/27 04:39:26;;;;;;;4.40;2.63;;;;;;;-0.01;100.00;93047.91;5008901;28;25085;-73
2021/11/27 04:41:53;;;;;;;3.20;2.40;;;;;;;-0.01;100.00;93057.28;5010524;28;24667;-74
2021/11/27 04:44:19;;;;;;;2.63;2.25;;;;;;;-0.03;100.00;93059.13;5010789;28;24436;-73
2021/11/27 04:46:46;;;;;;;2.20;2.00;;;;;;;-0.03;100.00;93052.28;5010376;28;24850;-74
2021/11/27 04:49:12;;;;;;;2.63;2.20;;;;;;;0.07;100.00;93059.31;5010715;28;24962;-73
2021/11/27 04:51:39;;;;;;;2.10;1.70;;;;;;;0.12;100.00;93059.84;5009780;28;24947;-74
2021/11/27 04:54:05;;;;;;;3.00;2.28;;;;;;;0.01;100.00;93049.56;5004772;28;24878;-73
2021/11/27 04:56:33;;;;;;;11.20;2.20;;;;;;;0.02;100.00;93054.53;5010192;28;24448;-74
2021/11/27 04:58:59;;;;;;;1.73;1.63;;;;;;;0.01;100.00;93050.38;5010598;28;24440;-73
2021/11/27 05:01:26;;;;;;;2.97;1.67;;;;;;;-0.01;100.00;93054.72;5010460;28;24420;-73
2021/11/27 05:03:52;;;;;;;1.60;1.50;;;;;;;0.03;100.00;93056.16;5010524;28;25009;-74
2021/11/27 05:06:19;;;;;;;1.80;1.60;;;;;;;0.02;100.00;93057.06;5010317;28;24794;-73
2021/11/27 05:08:45;;;;;;;2.05;1.58;;;;;;;0.04;100.00;93054.41;5010579;28;24988;-74
2021/11/27 05:11:12;;;;;;;1.60;1.35;;;;;;;0.01;100.00;93052.91;5010677;28;24515;-74
2021/11/27 05:13:40;;;;;;;1.48;1.35;;;;;;;0.04;100.00;93062.06;5010487;28;24420;-73
2021/11/27 05:16:07;;;;;;;1.88;1.63;;;;;;;0.03;100.00;93065.53;5010016;28;24459;-73
2021/11/27 05:18:33;;;;;;;3.55;2.85;;;;;;;0.01;100.00;93067.38;5010536;28;25053;-73
2021/11/27 05:21:00;;;;;;;4.57;3.25;;;;;;;0.08;100.00;93066.06;5010532;28;24432;-73
2021/11/27 05:23:27;;;;;;;11.82;8.50;;;;;;;0.04;100.00;93073.06;5010466;28;24811;-73
2021/11/27 05:25:54;;;;;;;4.23;2.73;;;;;;;0.07;100.00;93066.94;5010165;28;24424;-73
2021/11/27 05:28:21;;;;;;;3.40;2.03;;;;;;;0.04;100.00;93067.13;5010132;28;24969;-73
2021/11/27 05:30:49;;;;;;;2.55;2.15;;;;;;;0.03;100.00;93068.88;5010432;28;24424;-74
2021/11/27 05:33:23;;;;;;;1.60;1.30;;;;;;;0.08;100.00;93069.41;5010455;28;24416;-74
2021/11/27 05:35:51;;;;;;;2.63;1.70;;;;;;;0.06;100.00;93075.50;5010142;28;24539;-73
2021/11/27 05:38:17;;;;;;;1.77;1.60;;;;;;;0.11;100.00;93074.31;5010389;28;24476;-74
2021/11/27 05:40:44;;;;;;;1.60;1.30;;;;;;;0.05;100.00;93067.06;5010340;28;24424;-74
2021/11/27 05:43:10;;;;;;;2.60;1.40;;;;;;;0.11;100.00;93078.56;5010023;28;24448;-73
2021/11/27 05:45:37;;;;;;;2.00;1.60;;;;;;;0.13;100.00;93071.66;5010189;28;24427;-73
2021/11/27 05:48:05;;;;;;;2.00;1.40;;;;;;;0.14;100.00;93078.34;5010233;28;24428;-74
2021/11/27 05:50:33;;;;;;;4.32;1.30;;;;;;;0.15;100.00;93077.44;5010514;28;24413;-73
2021/11/27 05:53:00;;;;;;;1.60;1.13;;;;;;;0.12;100.00;93080.22;5010135;28;24432;-74
2021/11/27 05:55:26;;;;;;;2.28;1.08;;;;;;;0.08;100.00;93094.84;5009783;28;24420;-74
2021/11/27 05:57:53;;;;;;;1.80;1.30;;;;;;;0.12;100.00;93087.84;5010284;28;24421;-73
2021/11/27 06:00:20;;;;;;;1.40;1.10;;;;;;;0.14;100.00;93081.72;5010430;28;24427;-73
2021/11/27 06:02:46;;;;;;;1.10;1.00;;;;;;;0.13;100.00;93085.19;5011381;28;25039;-74
2021/11/27 06:05:15;;;;;;;1.05;0.75;;;;;;;0.15;100.00;93083.38;5013354;28;24725;-74
2021/11/27 06:07:42;;;;;;;1.48;0.85;;;;;;;0.15;100.00;93096.09;5013453;28;24425;-73
2021/11/27 06:10:09;;;;;;;0.95;0.68;;;;;;;0.17;100.00;93089.16;5013438;28;24946;-73
2021/11/27 06:12:37;;;;;;;0.80;0.80;;;;;;;0.12;100.00;93086.09;5013692;28;24429;-74
2021/11/27 06:15:04;;;;;;;0.95;0.88;;;;;;;0.13;100.00;93086.91;5013034;28;24985;-74
2021/11/27 06:17:31;;;;;;;1.10;0.60;;;;;;;0.18;100.00;93082.31;5013066;28;24954;-74
2021/11/27 06:19:57;;;;;;;0.50;0.40;;;;;;;0.15;100.00;93085.91;5013468;28;24423;-74
2021/11/27 06:22:25;;;;;;;0.70;0.65;;;;;;;0.18;100.00;93085.69;5013206;28;24445;-73
2021/11/27 06:24:51;;;;;;;0.98;0.75;;;;;;;0.13;100.00;93087.72;5013004;28;24428;-73
2021/11/27 06:27:18;;;;;;;1.00;0.70;;;;;;;0.15;100.00;93087.63;5013210;28;24432;-74
2021/11/27 06:29:44;;;;;;;0.60;0.50;;;;;;;0.12;100.00;93081.00;5013073;28;24433;-74
2021/11/27 06:32:11;;;;;;;3.58;0.80;;;;;;;0.12;100.00;93098.03;5013231;28;24423;-74
2021/11/27 06:34:39;;;;;;;0.63;0.60;;;;;;;0.24;100.00;93090.38;5013005;28;24424;-73
2021/11/27 06:37:05;;;;;;;0.98;0.65;;;;;;;0.29;100.00;93086.72;5012766;28;24435;-74
2021/11/27 06:39:33;;;;;;;0.80;0.60;;;;;;;0.26;100.00;93092.00;5012849;28;24417;-74
2021/11/27 06:42:00;;;;;;;0.93;0.60;;;;;;;0.21;100.00;93094.84;5012795;28;24786;-74
2021/11/27 06:44:26;;;;;;;0.80;0.47;;;;;;;0.27;100.00;93099.56;5013097;28;24459;-74
2021/11/27 06:46:53;;;;;;;1.50;0.80;;;;;;;0.29;100.00;93095.16;5012482;28;24435;-74
2021/11/27 06:49:19;;;;;;;1.20;1.08;;;;;;;0.25;100.00;93101.38;5012727;28;24432;-74
2021/11/27 06:51:46;;;;;;;1.88;1.15;;;;;;;0.29;100.00;93099.44;5012797;28;24512;-74
2021/11/27 06:54:12;;;;;;;1.00;0.80;;;;;;;0.32;100.00;93099.25;5012717;28;24424;-74
2021/11/27 06:56:40;;;;;;;1.25;1.00;;;;;;;0.21;100.00;93108.41;5012442;28;24482;-73
2021/11/27 06:59:06;;;;;;;1.50;1.00;;;;;;;0.12;100.00;93103.09;5012797;28;24425;-74
2021/11/27 07:01:33;;;;;;;1.40;0.90;;;;;;;0.10;100.00;93115.09;5012586;28;24431;-74
2021/11/27 07:04:00;;;;;;;1.30;1.08;;;;;;;0.05;100.00;93128.13;5012466;28;25037;-73
2021/11/27 07:06:27;;;;;;;1.17;0.90;;;;;;;0.02;100.00;93140.22;5011680;28;24435;-76
2021/11/27 07:08:53;;;;;;;0.93;0.63;;;;;;;0.03;100.00;93150.31;5012998;28;24833;-78
2021/11/27 07:11:20;;;;;;;1.10;0.70;;;;;;;0.01;100.00;93157.22;5012396;28;24950;-74
2021/11/27 07:13:47;;;;;;;1.73;1.30;;;;;;;0.02;100.00;93160.59;5011245;28;24775;-73
2021/11/27 07:16:14;;;;;;;2.67;1.30;;;;;;;0.07;100.00;93166.19;5011655;28;24435;-73
2021/11/27 07:18:40;;;;;;;1.48;1.00;;;;;;;0.08;100.00;93175.47;5012479;28;24826;-73
2021/11/27 07:21:07;;;;;;;1.05;0.82;;;;;;;0.06;100.00;93174.75;5012051;28;24483;-72
2021/11/27 07:23:33;;;;;;;0.80;0.70;;;;;;;0.16;100.00;93175.81;5012369;28;24440;-73
2021/11/27 07:26:00;;;;;;;0.63;0.60;;;;;;;0.34;100.00;93178.91;5011871;28;24783;-73
2021/11/27 07:28:26;;;;;;;0.70;0.50;;;;;;;0.42;100.00;93185.13;5012068;28;24969;-73
2021/11/27 07:30:54;;;;;;;0.88;0.68;;;;;;;0.48;100.00;93191.53;5011944;28;24412;-73
2021/11/27 07:33:20;;;;;;;1.38;0.73;;;;;;;0.54;100.00;93197.97;5012214;28;24427;-72
2021/11/27 07:35:49;;;;;;;0.70;0.50;;;;;;;0.65;100.00;93198.09;5011612;28;24429;-74
2021/11/27 07:38:16;;;;;;;1.10;0.68;;;;;;;0.87;100.00;93187.28;5012060;28;24420;-73
2021/11/27 07:40:42;;;;;;;0.63;0.60;;;;;;;1.01;100.00;93186.38;5012031;28;24436;-72
2021/11/27 07:43:09;;;;;;;2.53;0.70;;;;;;;1.18;100.00;93189.41;5011739;28;24447;-74
2021/11/27 07:45:36;;;;;;;1.42;0.70;;;;;;;1.32;100.00;93190.22;5011430;28;24424;-73
2021/11/27 07:48:04;;;;;;;2.20;0.55;;;;;;;1.41;100.00;93200.63;5011718;28;24483;-73
2021/11/27 07:50:31;;;;;;;3.00;0.50;;;;;;;1.34;100.00;93211.34;5011982;28;24427;-73
2021/11/27 07:52:57;;;;;;;0.65;0.40;;;;;;;1.06;100.00;93199.63;5011846;28;24423;-73
2021/11/27 07:55:24;;;;;;;0.43;0.43;;;;;;;0.98;100.00;93210.34;5011316;28;24815;-73
2021/11/27 07:57:50;;;;;;;2.15;1.70;;;;;;;0.89;100.00;93218.56;5011393;28;24740;-72
2021/11/27 08:00:17;;;;;;;5.65;3.60;;;;;;;0.90;100.00;93226.13;5011374;28;24958;-73
2021/11/27 08:02:43;;;;;;;11.93;7.22;;;;;;;0.92;100.00;93221.72;5011324;28;24498;-73
2021/11/27 08:05:11;;;;;;;3.37;2.40;;;;;;;0.86;100.00;93234.09;5011251;28;24522;-73
2021/11/27 08:07:38;;;;;;;2.70;1.83;;;;;;;0.83;100.00;93237.63;5011180;28;24959;-73
2021/11/27 08:10:05;;;;;;;2.67;1.33;;;;;;;0.90;100.00;93235.50;5011398;28;24424;-73
2021/11/27 08:12:31;;;;;;;1.70;1.00;;;;;;;0.94;100.00;93231.84;5011241;28;24427;-73
2021/11/27 08:14:58;;;;;;;0.90;0.57;;;;;;;0.95;100.00;93224.09;5010930;28;24424;-73
2021/11/27 08:17:24;;;;;;;0.85;0.70;;;;;;;1.02;100.00;93221.13;5010974;28;24416;-73
2021/11/27 08:19:51;;;;;;;0.77;0.63;;;;;;;1.18;100.00;93227.66;5011403;28;24455;-73
2021/11/27 08:22:19;;;;;;;0.77;0.77;;;;;;;1.11;100.00;93223.06;5011353;28;24416;-73
2021/11/27 08:24:46;;;;;;;0.70;0.47;;;;;;;1.15;100.00;93230.44;5010883;28;24444;-73
2021/11/27 08:27:13;;;;;;;3.20;1.35;;;;;;;1.20;100.00;93238.56;5010875;28;24440;-73
2021/11/27 08:29:39;;;;;;;0.95;0.85;;;;;;;1.24;100.00;93236.63;5010630;28;25017;-73
2021/11/27 08:32:06;;;;;;;0.60;0.60;;;;;;;1.29;100.00;93243.97;5011202;28;24972;-73
2021/11/27 08:34:33;;;;;;;1.10;0.85;;;;;;;1.18;100.00;93242.13;5011123;28;24791;-73
2021/11/27 08:36:59;;;;;;;0.70;0.70;;;;;;;1.22;100.00;93243.56;5010786;28;24508;-73
2021/11/27 08:39:27;;;;;;;1.35;0.75;;;;;;;1.30;100.00;93246.44;5011042;28;24435;-73
2021/11/27 08:41:54;;;;;;;0.75;0.60;;;;;;;1.36;100.00;93248.53;5010824;28;24478;-73
2021/11/27 08:44:20;;;;;;;1.40;0.80;;;;;;;1.49;100.00;93251.09;5010564;28;24444;-73
2021/11/27 08:46:47;;;;;;;1.95;1.20;;;;;;;1.74;100.00;93251.97;5010877;28;24427;-73
2021/11/27 08:49:13;;;;;;;2.78;1.70;;;;;;;1.55;100.00;93253.22;5010742;28;24950;-73
2021/11/27 08:51:41;;;;;;;4.28;2.13;;;;;;;1.74;100.00;93250.22;5010682;28;24806;-73
2021/11/27 08:54:09;;;;;;;2.42;1.80;;;;;;;1.77;100.00;93251.75;5010559;28;24988;-73
2021/11/27 08:56:37;;;;;;;2.25;1.60;;;;;;;1.77;100.00;93256.84;5010465;28;24822;-72
2021/11/27 08:59:04;;;;;;;1.48;1.20;;;;;;;1.67;100.00;93257.50;5010796;28;24988;-72
2021/11/27 09:01:30;;;;;;;1.95;1.30;;;;;;;1.75;100.00;93256.16;5011136;28;24452;-73
2021/11/27 09:03:59;;;;;;;1.63;1.23;;;;;;;1.63;100.00;93263.75;5010679;28;25017;-73
2021/11/27 09:06:26;;;;;;;3.55;1.65;;;;;;;1.68;100.00;93263.41;5010603;28;24863;-73
2021/11/27 09:08:53;;;;;;;2.05;1.70;;;;;;;1.51;100.00;93272.19;5010570;28;24416;-73
2021/11/27 09:11:22;;;;;;;2.75;2.03;;;;;;;1.40;100.00;93270.38;5010528;28;24421;-73
2021/11/27 09:13:51;;;;;;;2.78;1.83;;;;;;;1.45;100.00;93272.63;5010682;28;24490;-73
2021/11/27 09:16:18;;;;;;;2.30;1.77;;;;;;;1.52;100.00;93273.00;5010274;28;24427;-73
2021/11/27 09:18:45;;;;;;;5.90;3.40;;;;;;;1.47;100.00;93280.97;5010527;28;24460;-73
2021/11/27 09:21:11;;;;;;;3.40;2.70;;;;;;;1.53;100.00;93283.13;5010502;28;24413;-74
2021/11/27 09:23:38;;;;;;;1.50;1.30;;;;;;;1.43;100.00;93282.91;5010528;28;24476;-73
2021/11/27 09:26:04;;;;;;;1.65;1.10;;;;;;;1.50;100.00;93277.41;5009923;28;24409;-73
2021/11/27 09:28:31;;;;;;;2.25;1.27;;;;;;;1.56;100.00;93277.81;5007850;28;24451;-73
2021/11/27 09:30:59;;;;;;;1.27;1.00;;;;;;;1.63;100.00;93281.59;5010179;28;24872;-73
2021/11/27 09:33:26;;;;;;;2.70;1.30;;;;;;;1.73;100.00;93273.31;5004651;28;24975;-73
2021/11/27 09:35:59;;;;;;;2.70;1.30;;;;;;;1.68;100.00;93274.44;5008911;28;24440;-73
2021/11/27 09:38:26;;;;;;;1.98;1.58;;;;;;;1.60;100.00;93275.88;5012719;28;24441;-73
2021/11/27 09:41:09;;;;;;;1.40;1.30;;;;;;;1.59;100.00;93279.34;5014431;28;24435;-73
2021/11/27 09:43:37;;;;;;;1.73;1.35;;;;;;;1.75;100.00;93285.03;5013978;28;24447;-73
2021/11/27 09:46:07;;;;;;;4.60;1.80;;;;;;;1.77;100.00;93292.59;5014411;28;24431;-73
2021/11/27 09:48:36;;;;;;;2.15;1.80;;;;;;;1.73;100.00;93284.31;5013978;28;24415;-73
2021/11/27 09:51:02;;;;;;;2.92;2.20;;;;;;;1.81;100.00;93282.06;5013581;28;24428;-73
2021/11/27 09:53:29;;;;;;;2.40;1.70;;;;;;;2.01;100.00;93283.25;5009792;28;25000;-73
2021/11/27 09:55:56;;;;;;;4.15;2.08;;;;;;;1.95;100.00;93291.31;5013208;28;24436;-74
2021/11/27 09:58:22;;;;;;;2.28;1.60;;;;;;;1.88;100.00;93283.25;5013732;28;24803;-73
2021/11/27 10:00:50;;;;;;;1.90;1.70;;;;;;;1.76;100.00;93288.41;5013592;28;24428;-73
2021/11/27 10:03:18;;;;;;;3.05;1.67;;;;;;;1.63;100.00;93285.84;5013415;28;24474;-73
2021/11/27 10:05:47;;;;;;;3.58;1.90;;;;;;;1.70;100.00;93285.34;5012810;28;24436;-73
2021/11/27 10:08:13;;;;;;;2.17;1.58;;;;;;;1.82;100.00;93286.25;5013699;28;24846;-73
2021/11/27 10:10:40;;;;;;;1.92;1.60;;;;;;;2.11;100.00;93276.59;5013341;28;24424;-73
2021/11/27 10:13:07;;;;;;;3.37;1.80;;;;;;;2.46;100.00;93278.41;5013380;28;24432;-73
2021/11/27 10:15:33;;;;;;;3.13;1.80;;;;;;;2.44;100.00;93282.78;5013151;28;24419;-73
2021/11/27 10:18:13;;;;;;;2.42;2.05;;;;;;;2.51;100.00;93289.09;5013043;28;24424;-73
2021/11/27 10:20:41;;;;;;;7.05;4.13;;;;;;;2.42;100.00;93282.91;5013480;28;24849;-73
2021/11/27 10:23:07;;;;;;;3.00;1.90;;;;;;;2.37;100.00;93292.66;5013309;28;24455;-73
2021/11/27 10:25:35;;;;;;;7.27;4.27;;;;;;;2.31;100.00;93284.59;5013085;28;24496;-73
2021/11/27 10:28:09;;;;;;;8.65;5.10;;;;;;;2.28;100.00;93293.28;5012634;28;24994;-73
2021/11/27 10:30:41;;;;;;;5.60;3.33;;;;;;;2.37;100.00;93300.31;5011769;28;24444;-73
2021/11/27 10:33:07;;;;;;;6.15;3.90;;;;;;;2.29;100.00;93300.00;5011905;28;24895;-74
2021/11/27 10:35:34;;;;;;;6.32;3.67;;;;;;;2.33;100.00;93303.16;5005409;28;24432;-73
2021/11/27 10:38:06;;;;;;;3.78;3.17;;;;;;;2.27;100.00;93303.59;5011924;28;24436;-73
2021/11/27 10:40:33;;;;;;;4.43;2.78;;;;;;;2.31;100.00;93307.56;5011796;28;24420;-75
2021/11/27 10:43:01;;;;;;;2.30;1.90;;;;;;;2.35;100.00;93306.44;5011621;28;24428;-72
2021/11/27 10:45:29;;;;;;;2.40;1.65;;;;;;;2.41;100.00;93306.81;5011549;28;25021;-73
2021/11/27 10:48:08;;;;;;;2.47;1.48;;;;;;;2.40;100.00;93315.38;5011861;28;24468;-73
2021/11/27 10:50:38;;;;;;;2.95;1.55;;;;;;;2.26;100.00;93309.63;5011878;28;24427;-73
2021/11/27 10:53:11;;;;;;;1.90;1.40;;;;;;;2.27;100.00;93316.38;5011514;28;24443;-73
2021/11/27 10:55:39;;;;;;;4.53;1.63;;;;;;;2.18;100.00;93312.72;5011214;28;24429;-72
2021/11/27 10:58:08;;;;;;;2.58;1.70;;;;;;;2.15;100.00;93323.13;5011398;28;24439;-73
2021/11/27 11:00:38;;;;;;;4.83;1.50;;;;;;;2.06;100.00;93334.81;5011719;28;24846;-73
2021/11/27 11:03:10;;;;;;;3.08;1.85;;;;;;;2.03;100.00;93336.75;5011918;28;24523;-73
2021/11/27 11:05:38;;;;;;;3.97;1.50;;;;;;;1.87;100.00;93334.44;5011229;28;24455;-72
2021/11/27 11:08:06;;;;;;;5.68;1.88;;;;;;;1.72;100.00;93341.38;5011394;28;24428;-72
2021/11/27 11:10:36;;;;;;;5.50;1.90;;;;;;;1.72;100.00;93341.38;5011619;28;24415;-73
2021/11/27 11:13:06;;;;;;;3.05;2.20;;;;;;;1.60;100.00;93348.13;5011377;28;24997;-72
2021/11/27 11:15:38;;;;;;;2.28;1.38;;;;;;;1.74;100.00;93339.53;5011603;28;24416;-72
2021/11/27 11:18:13;;;;;;;2.13;1.33;;;;;;;1.82;100.00;93341.59;5000936;28;24468;-73
2021/11/27 11:20:46;;;;;;;7.00;4.85;;;;;;;1.83;100.00;93343.22;4991534;28;24978;-72
2021/11/27 11:23:15;;;;;;;3.95;2.40;;;;;;;1.92;100.00;93352.78;4991757;28;24660;-73
2021/11/27 11:26:01;;;;;;;3.50;2.08;;;;;;;2.01;100.00;93348.81;4991358;28;24455;-73
2021/11/27 11:28:30;;;;;;;3.97;2.30;;;;;;;2.04;100.00;93349.41;4931909;28;1717729;-73
2021/11/27 11:31:04;;;;;;;2.72;1.60;;;;;;;2.21;100.00;93353.34;4992288;28;24432;-72
2021/11/27 11:33:32;;;;;;;1.88;1.60;;;;;;;2.25;100.00;93351.41;5001356;28;24507;-75